Time;durP1;ratioP1;P1;durP2;ratioP2;P2;SDS_P1;SDS_P2;PMS_P1;PMS_P2;Temp;Humidity;BMP_temperature;BMP_pressure;BME280_temperature;BME280_humidity;BME280_pressure;Samples;Min_cycle;Max_cycle;Signal;HPM_P1;HPM_P2
2022/10/17 00:00:41;;;;;;;10.77;7.50;;;;;;;7.70;70.16;98391.22;5089605;28;20187;-74
2022/10/17 00:03:08;;;;;;;11.57;8.07;;;;;;;7.90;69.22;98378.03;5088373;28;20224;-75
2022/10/17 00:05:40;;;;;;;10.83;7.80;;;;;;;8.12;68.68;98377.72;5082557;28;20272;-75
2022/10/17 00:08:08;;;;;;;11.97;7.27;;;;;;;8.30;67.34;98389.53;5068537;28;20189;-74
2022/10/17 00:10:35;;;;;;;11.97;7.20;;;;;;;8.46;66.45;98387.56;5067475;28;20193;-74
2022/10/17 00:13:03;;;;;;;10.50;7.13;;;;;;;8.37;66.35;98390.25;5068278;28;20193;-74
2022/10/17 00:15:30;;;;;;;11.67;8.17;;;;;;;8.13;66.95;98397.50;5067665;28;20223;-75
2022/10/17 00:17:57;;;;;;;7.90;6.60;;;;;;;8.01;68.26;98391.66;5067523;28;20219;-75
2022/10/17 00:20:24;;;;;;;9.73;7.67;;;;;;;7.81;68.40;98404.78;5067789;28;20283;-75
2022/10/17 00:22:52;;;;;;;11.73;7.30;;;;;;;7.37;69.90;98358.97;5067356;28;20218;-75
2022/10/17 00:25:19;;;;;;;9.13;7.30;;;;;;;7.62;70.21;98398.19;5068070;28;20185;-75
2022/10/17 00:27:46;;;;;;;11.23;7.93;;;;;;;7.81;69.11;98402.22;5067058;28;20284;-75
2022/10/17 00:30:15;;;;;;;7.80;6.40;;;;;;;7.52;69.11;98350.22;5066824;28;20675;-75
2022/10/17 00:32:42;;;;;;;8.77;6.57;;;;;;;7.72;68.25;98392.03;5067583;28;20227;-75
2022/10/17 00:35:09;;;;;;;10.40;7.07;;;;;;;7.36;69.89;98389.91;5066255;28;20675;-75
2022/10/17 00:37:36;;;;;;;11.10;7.50;;;;;;;7.44;69.92;98390.66;5067363;28;20282;-75
2022/10/17 00:40:05;;;;;;;11.30;7.17;;;;;;;7.56;69.79;98412.88;5067362;28;20210;-75
2022/10/17 00:42:32;;;;;;;11.03;6.50;;;;;;;7.29;70.29;98401.16;5066377;28;20220;-75
2022/10/17 00:45:04;;;;;;;8.23;6.50;;;;;;;7.38;70.57;98393.31;5066811;28;20209;-75
2022/10/17 00:47:32;;;;;;;12.73;7.33;;;;;;;7.03;70.34;98367.06;5067644;28;20227;-75
2022/10/17 00:49:59;;;;;;;9.77;6.80;;;;;;;7.22;70.49;98397.78;5065674;28;20276;-78
2022/10/17 00:52:32;;;;;;;9.40;7.20;;;;;;;7.04;70.79;98399.69;5046028;28;20199;-76
2022/10/17 00:55:11;;;;;;;10.00;6.77;;;;;;;7.20;71.03;98398.66;5047022;28;20738;-73
2022/10/17 00:57:38;;;;;;;10.07;5.90;;;;;;;7.19;71.24;98412.44;5045393;28;20675;-74
2022/10/17 01:00:08;;;;;;;8.10;6.10;;;;;;;7.14;71.76;98407.31;5047476;28;20192;-74
2022/10/17 01:02:36;;;;;;;11.47;6.03;;;;;;;6.87;71.55;98419.59;5046456;28;20224;-74
2022/10/17 01:05:03;;;;;;;9.57;6.07;;;;;;;7.03;71.46;98409.16;5047439;28;20249;-75
2022/10/17 01:07:33;;;;;;;10.27;6.33;;;;;;;7.02;71.73;98416.91;5046801;28;20215;-74
2022/10/17 01:10:06;;;;;;;11.27;5.87;;;;;;;6.97;72.19;98409.22;5046789;28;20663;-75
2022/10/17 01:13:06;;;;;;;8.30;5.70;;;;;;;7.21;70.29;98410.69;5048245;28;20204;-79
2022/10/17 01:15:39;;;;;;;7.40;5.60;;;;;;;7.03;71.33;98416.00;5046408;28;20203;-76
2022/10/17 01:18:32;;;;;;;6.63;5.67;;;;;;;7.26;71.05;98408.91;5045783;28;20702;-74
2022/10/17 01:21:22;;;;;;;8.27;5.80;;;;;;;7.19;70.12;98397.81;5045424;28;20192;-74
2022/10/17 01:24:28;;;;;;;7.50;5.60;;;;;;;7.34;69.40;98409.66;5045002;28;20645;-76
2022/10/17 01:27:14;;;;;;;7.03;5.30;;;;;;;7.28;70.35;98404.59;5045690;28;20203;-76
2022/10/17 01:30:20;;;;;;;5.63;5.03;;;;;;;7.39;70.04;98405.34;5045450;28;20250;-75
2022/10/17 01:33:26;;;;;;;7.00;5.37;;;;;;;6.95;70.62;98405.78;5044692;28;20723;-77
2022/10/17 01:35:56;;;;;;;7.77;5.00;;;;;;;6.79;71.28;98406.81;5028305;28;20234;-74
2022/10/17 01:38:43;;;;;;;7.60;5.47;;;;;;;6.80;71.05;98417.97;5045532;28;20185;-78
2022/10/17 01:41:39;;;;;;;5.60;5.10;;;;;;;6.65;71.69;98412.94;5044965;28;20187;-78
2022/10/17 01:44:16;;;;;;;5.77;5.03;;;;;;;6.58;71.33;98397.56;5045500;28;20682;-75
2022/10/17 01:46:49;;;;;;;11.43;5.53;;;;;;;6.58;71.78;98410.41;5046342;28;20205;-78
2022/10/17 01:49:21;;;;;;;7.70;5.43;;;;;;;6.43;71.96;98412.25;5046823;28;20189;-77
2022/10/17 01:51:54;;;;;;;8.73;5.40;;;;;;;6.50;72.36;98393.34;5047180;28;20282;-78
2022/10/17 01:54:36;;;;;;;7.23;5.50;;;;;;;6.68;70.64;98388.03;5046333;28;20192;-78
2022/10/17 01:57:07;;;;;;;6.70;5.03;;;;;;;6.75;69.83;98407.72;5045589;28;20243;-75
2022/10/17 01:59:41;;;;;;;6.60;5.50;;;;;;;6.33;70.95;98410.59;5045068;28;20238;-75
2022/10/17 02:02:10;;;;;;;9.00;5.17;;;;;;;6.12;72.45;98406.47;5028306;28;20662;-76
2022/10/17 02:04:37;;;;;;;5.50;4.67;;;;;;;6.32;72.40;98414.06;5045669;28;20823;-75
2022/10/17 02:07:09;;;;;;;6.73;5.00;;;;;;;6.27;72.09;98406.38;5045284;28;20215;-75
2022/10/17 02:09:37;;;;;;;8.43;4.90;;;;;;;6.44;71.42;98417.41;5050650;28;20581;-75
2022/10/17 02:12:38;;;;;;;6.70;5.17;;;;;;;6.36;70.49;98426.91;5031850;28;20656;-75
2022/10/17 02:15:18;;;;;;;5.67;5.07;;;;;;;6.46;70.99;98428.53;5049024;28;20342;-75
2022/10/17 02:18:06;;;;;;;6.10;5.13;;;;;;;6.38;70.88;98414.88;5048965;28;20192;-74
2022/10/17 02:20:48;;;;;;;8.10;5.80;;;;;;;6.42;71.23;98429.41;5049742;28;20281;-75
2022/10/17 02:23:15;;;;;;;10.87;5.20;;;;;;;6.38;71.60;98422.59;5049108;28;20304;-75
2022/10/17 02:25:49;;;;;;;7.13;4.77;;;;;;;6.20;71.46;98412.41;5048649;28;20191;-75
2022/10/17 02:28:21;;;;;;;8.60;5.10;;;;;;;6.33;70.82;98426.03;5049983;28;20190;-75
2022/10/17 02:30:59;;;;;;;7.63;5.97;;;;;;;6.21;71.54;98410.69;5050030;28;20202;-75
2022/10/17 02:33:52;;;;;;;5.97;5.00;;;;;;;5.84;72.20;98429.75;5049294;28;20194;-75
2022/10/17 02:36:28;;;;;;;6.73;5.47;;;;;;;5.74;71.72;98422.09;5050076;28;20191;-75
2022/10/17 02:38:56;;;;;;;7.57;5.50;;;;;;;5.70;72.86;98425.53;5031720;28;20199;-75
2022/10/17 02:41:24;;;;;;;7.23;5.10;;;;;;;5.75;72.21;98410.06;5048262;28;20273;-75
2022/10/17 02:43:52;;;;;;;6.47;5.07;;;;;;;6.23;71.16;98425.25;5048610;28;20217;-75
2022/10/17 02:46:27;;;;;;;6.33;4.60;;;;;;;6.49;70.80;98433.63;5047871;28;20570;-75
2022/10/17 02:48:59;;;;;;;8.60;5.27;;;;;;;6.75;69.74;98423.16;5050067;28;20253;-74
2022/10/17 02:51:44;;;;;;;8.47;5.13;;;;;;;6.95;68.81;98433.25;5031521;28;20183;-76
2022/10/17 02:54:30;;;;;;;8.80;5.63;;;;;;;7.15;67.30;98451.97;5049566;28;20182;-74
2022/10/17 02:57:05;;;;;;;10.97;6.23;;;;;;;7.32;67.69;98443.19;5048487;28;20685;-75
2022/10/17 02:59:35;;;;;;;7.10;5.37;;;;;;;7.14;67.08;98409.91;5047606;28;20188;-74
2022/10/17 03:02:04;;;;;;;8.17;5.90;;;;;;;7.30;67.21;98434.63;5048510;28;20267;-75
2022/10/17 03:04:33;;;;;;;7.13;4.80;;;;;;;7.26;66.49;98434.66;5050608;28;20225;-75
2022/10/17 03:07:00;;;;;;;7.73;5.47;;;;;;;6.73;68.13;98426.59;5049838;28;20194;-75
2022/10/17 03:09:27;;;;;;;9.30;4.87;;;;;;;6.54;69.12;98421.59;5048166;28;20184;-75
2022/10/17 03:11:54;;;;;;;5.23;4.13;;;;;;;6.53;69.74;98429.34;5047644;28;20266;-76
2022/10/17 03:14:21;;;;;;;6.90;4.90;;;;;;;6.71;69.29;98429.19;5048276;28;20702;-76
2022/10/17 03:16:48;;;;;;;6.20;4.70;;;;;;;6.67;69.60;98436.94;5047027;28;20278;-75
2022/10/17 03:19:17;;;;;;;6.40;4.97;;;;;;;6.78;69.19;98432.56;5048098;28;20192;-76
2022/10/17 03:21:44;;;;;;;13.00;5.60;;;;;;;6.79;68.76;98426.53;5047276;28;20190;-75
2022/10/17 03:24:11;;;;;;;8.43;5.13;;;;;;;6.72;68.64;98440.34;5047871;28;20837;-75
2022/10/17 03:26:38;;;;;;;7.77;4.70;;;;;;;6.80;68.20;98439.41;5047509;28;20275;-75
2022/10/17 03:29:06;;;;;;;8.53;5.50;;;;;;;6.33;69.57;98441.47;5063901;28;20241;-78
2022/10/17 03:31:35;;;;;;;6.60;4.60;;;;;;;5.93;71.26;98435.72;5048965;28;20227;-75
2022/10/17 03:34:04;;;;;;;8.23;4.53;;;;;;;5.69;72.09;98428.09;5063726;28;20184;-75
2022/10/17 03:36:31;;;;;;;5.53;4.63;;;;;;;5.52;73.52;98409.34;5049063;28;20219;-75
2022/10/17 03:38:59;;;;;;;6.50;4.50;;;;;;;5.96;71.22;98415.13;5063406;28;20567;-75
2022/10/17 03:41:27;;;;;;;6.63;3.77;;;;;;;6.31;69.82;98427.78;5063925;28;20194;-75
2022/10/17 03:43:54;;;;;;;5.13;4.00;;;;;;;6.44;69.92;98427.69;5046727;28;20223;-76
2022/10/17 03:46:22;;;;;;;5.70;4.03;;;;;;;6.42;69.11;98411.41;5070055;28;20665;-76
2022/10/17 03:48:50;;;;;;;5.10;3.97;;;;;;;6.81;68.26;98419.66;5078555;28;20516;-77
2022/10/17 03:51:17;;;;;;;6.23;4.70;;;;;;;6.83;67.39;98435.94;5082823;28;20269;-75
2022/10/17 03:53:49;;;;;;;6.13;4.60;;;;;;;6.99;67.61;98432.34;5076113;28;20665;-74
2022/10/17 03:56:22;;;;;;;5.47;4.30;;;;;;;6.71;69.12;98438.63;5066414;28;20274;-75
2022/10/17 03:58:56;;;;;;;6.00;4.60;;;;;;;6.68;68.49;98436.94;5067089;28;20269;-74
2022/10/17 04:01:23;;;;;;;7.03;4.13;;;;;;;6.26;70.24;98440.69;5051612;28;20203;-76
2022/10/17 04:03:54;;;;;;;5.37;4.00;;;;;;;6.05;70.31;98438.25;5066671;28;20226;-78
2022/10/17 04:06:21;;;;;;;5.10;4.10;;;;;;;5.96;70.88;98446.00;5067195;28;20178;-76
2022/10/17 04:08:49;;;;;;;5.13;3.80;;;;;;;6.31;71.04;98435.50;5049448;28;20189;-77
2022/10/17 04:11:23;;;;;;;5.77;3.97;;;;;;;6.65;69.35;98451.56;5066953;28;20186;-75
2022/10/17 04:13:55;;;;;;;4.90;3.97;;;;;;;6.51;69.17;98449.91;5066039;28;20638;-75
2022/10/17 04:16:25;;;;;;;7.07;5.77;;;;;;;6.78;68.19;98451.44;5066467;28;20179;-78
2022/10/17 04:18:59;;;;;;;6.57;4.40;;;;;;;6.84;67.61;98445.41;5060047;28;20214;-76
2022/10/17 04:21:30;;;;;;;6.80;4.10;;;;;;;6.39;69.31;98446.56;5079460;28;20619;-75
2022/10/17 04:24:01;;;;;;;4.63;3.60;;;;;;;6.58;69.82;98446.44;5083985;28;20794;-76
2022/10/17 04:26:42;;;;;;;6.87;4.50;;;;;;;6.81;69.82;98447.97;5065585;28;20190;-75
2022/10/17 04:29:10;;;;;;;7.10;5.20;;;;;;;7.01;69.11;98446.06;5066403;28;20242;-78
2022/10/17 04:31:39;;;;;;;11.30;5.67;;;;;;;7.19;68.10;98451.06;5071039;28;20286;-77
2022/10/17 04:34:54;;;;;;;21.20;5.87;;;;;;;7.16;68.14;98457.09;5082475;28;20202;-77
2022/10/17 04:38:13;;;;;;;15.37;6.17;;;;;;;7.27;68.19;98472.47;5085463;28;20187;-76
2022/10/17 04:40:44;;;;;;;11.57;5.23;;;;;;;7.21;67.97;98469.94;5052930;28;20198;-77
2022/10/17 04:43:11;;;;;;;8.00;5.63;;;;;;;7.38;67.31;98470.63;5068811;28;20222;-77
2022/10/17 04:45:38;;;;;;;13.97;6.10;;;;;;;7.47;67.32;98474.81;5080833;28;20194;-77
2022/10/17 04:48:05;;;;;;;11.83;6.77;;;;;;;7.30;67.83;98483.59;5064967;28;20697;-77
2022/10/17 04:50:33;;;;;;;21.43;7.40;;;;;;;7.01;68.82;98466.69;5065663;28;20199;-77
2022/10/17 04:53:27;;;;;;;16.13;7.20;;;;;;;7.25;69.28;98482.75;5065278;28;20694;-77
2022/10/17 04:55:54;;;;;;;17.27;7.47;;;;;;;7.26;67.50;98487.06;5065274;28;20201;-77
2022/10/17 04:58:21;;;;;;;16.60;7.53;;;;;;;7.17;67.87;98486.31;5068189;28;20191;-77
2022/10/17 05:00:50;;;;;;;16.80;7.87;;;;;;;7.26;67.74;98483.63;5068388;28;20196;-76
2022/10/17 05:03:24;;;;;;;10.93;6.47;;;;;;;7.14;68.83;98509.50;5066352;28;20223;-75
2022/10/17 05:05:51;;;;;;;15.43;9.37;;;;;;;6.96;68.43;98496.78;5081775;28;20230;-77
2022/10/17 05:08:18;;;;;;;16.27;9.83;;;;;;;7.08;69.06;98502.69;5087027;28;20197;-76
2022/10/17 05:10:45;;;;;;;21.73;10.63;;;;;;;7.23;67.88;98496.56;5085651;28;20195;-76
2022/10/17 05:13:12;;;;;;;14.30;10.40;;;;;;;7.07;67.55;98523.28;5086761;28;20210;-76
2022/10/17 05:15:40;;;;;;;15.20;9.63;;;;;;;7.04;68.75;98518.19;5085864;28;20186;-77
2022/10/17 05:18:08;;;;;;;18.07;8.90;;;;;;;7.37;67.54;98520.47;5084629;28;20183;-76
2022/10/17 05:20:36;;;;;;;20.53;10.00;;;;;;;7.67;66.12;98529.59;5085916;28;20679;-76
2022/10/17 05:23:05;;;;;;;18.63;8.63;;;;;;;7.83;66.24;98521.66;5085368;28;20188;-74
2022/10/17 05:25:38;;;;;;;28.10;10.33;;;;;;;8.17;65.22;98524.72;5085851;28;20268;-75
2022/10/17 05:28:05;;;;;;;18.63;9.83;;;;;;;8.30;63.87;98534.06;5087292;28;20581;-75
2022/10/17 05:30:34;;;;;;;20.47;10.70;;;;;;;8.40;63.29;98542.53;5086200;28;20188;-77
2022/10/17 05:33:06;;;;;;;13.27;7.93;;;;;;;8.36;63.96;98544.28;5086142;28;20231;-76
2022/10/17 05:35:33;;;;;;;9.27;7.33;;;;;;;8.47;63.36;98536.41;5075446;28;20692;-78
2022/10/17 05:38:01;;;;;;;11.90;7.43;;;;;;;8.58;63.06;98542.25;5067415;28;20199;-76
2022/10/17 05:40:30;;;;;;;23.50;8.37;;;;;;;8.74;62.01;98546.34;5048979;28;20207;-77
2022/10/17 05:42:58;;;;;;;17.60;7.80;;;;;;;9.01;61.62;98549.38;5066613;28;20197;-76
2022/10/17 05:45:25;;;;;;;10.83;6.60;;;;;;;8.93;61.72;98543.47;5052624;28;20196;-76
2022/10/17 05:47:52;;;;;;;17.17;8.23;;;;;;;8.63;62.29;98553.41;5069353;28;20371;-76
2022/10/17 05:50:22;;;;;;;16.97;9.10;;;;;;;8.71;63.24;98554.16;5071156;28;20491;-76
2022/10/17 05:53:02;;;;;;;11.17;7.73;;;;;;;8.92;63.85;98566.75;5069591;28;20641;-76
2022/10/17 05:55:30;;;;;;;12.57;6.93;;;;;;;9.28;62.29;98563.59;5074815;28;20837;-77
2022/10/17 05:58:01;;;;;;;11.83;7.97;;;;;;;9.61;60.81;98583.72;5053490;28;20254;-76
2022/10/17 06:00:34;;;;;;;13.90;7.80;;;;;;;9.69;60.82;98576.66;5053263;28;20231;-75
2022/10/17 06:03:02;;;;;;;12.50;9.20;;;;;;;10.04;60.19;98577.75;5069491;28;20243;-76
2022/10/17 06:05:29;;;;;;;19.43;9.23;;;;;;;10.06;59.33;98591.50;5052037;28;20278;-76
2022/10/17 06:07:57;;;;;;;15.83;8.70;;;;;;;9.73;61.78;98596.44;5020208;28;20200;-75
2022/10/17 06:10:33;;;;;;;13.47;7.70;;;;;;;9.56;62.01;98588.09;5068785;28;20646;-77
2022/10/17 06:13:01;;;;;;;15.47;7.87;;;;;;;9.87;61.40;98587.56;5052385;28;20197;-77
2022/10/17 06:15:28;;;;;;;8.40;6.70;;;;;;;10.15;59.52;98586.19;5052811;28;20255;-76
2022/10/17 06:18:00;;;;;;;15.37;8.40;;;;;;;10.28;59.60;98585.09;5068137;28;20699;-75
2022/10/17 06:20:27;;;;;;;12.93;7.87;;;;;;;10.43;59.64;98588.22;5068697;28;20185;-77
2022/10/17 06:22:54;;;;;;;14.83;7.87;;;;;;;10.56;59.38;98591.41;5067965;28;20270;-76
2022/10/17 06:25:35;;;;;;;12.87;6.90;;;;;;;10.77;58.49;98590.94;5066311;28;20192;-76
2022/10/17 06:28:03;;;;;;;9.93;6.00;;;;;;;11.13;57.83;98597.91;5069006;28;20562;-75
2022/10/17 06:30:30;;;;;;;12.43;5.63;;;;;;;11.08;57.79;98597.16;5067905;28;20246;-77
2022/10/17 06:32:58;;;;;;;13.40;6.53;;;;;;;11.32;58.49;98606.09;5068366;28;20743;-76
2022/10/17 06:35:26;;;;;;;11.70;7.60;;;;;;;11.29;58.54;98601.81;5051490;28;20194;-76
2022/10/17 06:37:53;;;;;;;12.50;6.80;;;;;;;11.46;58.01;98599.69;5069897;28;20197;-76
2022/10/17 06:40:21;;;;;;;17.10;7.30;;;;;;;11.73;57.44;98594.72;5067644;28;20183;-76
2022/10/17 06:42:48;;;;;;;14.13;8.67;;;;;;;11.77;57.66;98588.56;5068566;28;20636;-76
2022/10/17 06:45:40;;;;;;;9.33;5.70;;;;;;;11.77;56.54;98588.56;5054206;28;20232;-77
2022/10/17 06:48:25;;;;;;;10.20;7.37;;;;;;;11.90;55.90;98600.34;5067458;28;20566;-76
2022/10/17 06:51:11;;;;;;;6.63;4.93;;;;;;;12.10;55.36;98603.25;5051898;28;20210;-75
2022/10/17 06:53:46;;;;;;;9.20;7.23;;;;;;;12.40;54.31;98592.06;5067811;28;20224;-77
2022/10/17 06:56:44;;;;;;;10.73;6.43;;;;;;;12.72;53.14;98599.75;5055624;28;20195;-79
2022/10/17 06:59:34;;;;;;;10.57;5.27;;;;;;;12.98;52.37;98594.63;5069108;28;20336;-78
2022/10/17 07:02:10;;;;;;;8.43;4.10;;;;;;;12.90;50.55;98604.41;5067318;28;20190;-77
2022/10/17 07:04:38;;;;;;;8.83;4.57;;;;;;;13.14;51.03;98602.00;5067519;28;20267;-75
2022/10/17 07:07:06;;;;;;;11.57;5.40;;;;;;;13.38;50.72;98601.22;5068401;28;20248;-77
2022/10/17 07:09:34;;;;;;;8.40;4.83;;;;;;;13.44;49.08;98607.09;5067130;28;20253;-77
2022/10/17 07:12:01;;;;;;;8.33;5.83;;;;;;;13.15;47.97;98599.34;5067402;28;20766;-76
2022/10/17 07:14:30;;;;;;;8.20;5.90;;;;;;;12.79;48.79;98609.09;5067337;28;20189;-79
2022/10/17 07:17:00;;;;;;;12.67;6.60;;;;;;;12.79;49.76;98610.84;5069156;28;20254;-76
2022/10/17 07:19:30;;;;;;;9.97;6.43;;;;;;;12.96;48.77;98614.63;5034606;28;20293;-78
2022/10/17 07:21:57;;;;;;;12.70;8.67;;;;;;;13.23;47.70;98607.75;5067629;28;20307;-77
2022/10/17 07:24:24;;;;;;;8.43;6.07;;;;;;;13.45;46.44;98618.34;5050205;28;20212;-75
2022/10/17 07:27:03;;;;;;;5.60;5.07;;;;;;;13.52;45.45;98619.84;5067145;28;20185;-75
2022/10/17 07:29:30;;;;;;;13.50;7.30;;;;;;;13.76;45.76;98609.50;5067427;28;20194;-76
2022/10/17 07:32:08;;;;;;;5.40;4.90;;;;;;;13.76;45.59;98624.28;5066767;28;20317;-75
2022/10/17 07:34:37;;;;;;;5.77;4.20;;;;;;;13.66;46.27;98628.91;5067880;28;20205;-80
2022/10/17 07:37:08;;;;;;;6.13;3.77;;;;;;;13.69;46.85;98627.97;5068084;28;20254;-78
2022/10/17 07:39:38;;;;;;;9.73;5.60;;;;;;;13.98;45.92;98630.44;5066971;28;20671;-77
2022/10/17 07:42:06;;;;;;;6.00;4.90;;;;;;;14.10;45.07;98624.81;5050186;28;20568;-75
2022/10/17 07:44:34;;;;;;;6.87;4.60;;;;;;;14.03;44.98;98628.56;5066302;28;20232;-77
2022/10/17 07:47:01;;;;;;;5.17;4.03;;;;;;;13.92;45.37;98629.81;5066621;28;20204;-77
2022/10/17 07:49:28;;;;;;;4.40;3.80;;;;;;;13.55;45.91;98619.75;5066593;28;20640;-76
2022/10/17 07:51:56;;;;;;;6.10;3.80;;;;;;;13.73;45.68;98624.34;5069276;28;20185;-77
2022/10/17 07:54:25;;;;;;;5.60;4.10;;;;;;;14.01;45.61;98634.72;5066051;28;20179;-76
2022/10/17 07:56:52;;;;;;;12.90;6.40;;;;;;;14.23;43.93;98628.72;5068541;28;20297;-77
2022/10/17 07:59:19;;;;;;;4.13;3.63;;;;;;;14.08;44.15;98595.38;5067683;28;20284;-78
2022/10/17 08:01:47;;;;;;;5.00;3.53;;;;;;;14.14;44.92;98615.13;5067773;28;20195;-78
2022/10/17 08:04:17;;;;;;;11.80;5.40;;;;;;;14.16;44.48;98614.19;5067345;28;20223;-76
2022/10/17 08:06:45;;;;;;;5.10;4.43;;;;;;;14.34;42.68;98612.75;5067060;28;20618;-76
2022/10/17 08:09:14;;;;;;;11.30;4.97;;;;;;;14.28;42.45;98589.47;5067730;28;20649;-76
2022/10/17 08:11:44;;;;;;;16.23;5.97;;;;;;;14.67;42.70;98620.16;5066791;28;20195;-77
2022/10/17 08:14:12;;;;;;;7.30;4.50;;;;;;;14.64;42.38;98612.47;5066425;28;20660;-77
2022/10/17 08:16:40;;;;;;;7.00;4.50;;;;;;;14.88;41.23;98615.09;5065507;28;20188;-77
2022/10/17 08:19:10;;;;;;;5.60;4.13;;;;;;;15.05;41.57;98616.13;5067438;28;20193;-76
2022/10/17 08:21:40;;;;;;;4.53;3.93;;;;;;;15.17;40.84;98614.78;5049798;28;20185;-79
2022/10/17 08:24:09;;;;;;;7.70;4.60;;;;;;;15.34;40.98;98608.00;5049824;28;20275;-77
2022/10/17 08:26:36;;;;;;;8.20;4.40;;;;;;;15.56;40.18;98612.41;5067883;28;20186;-77
2022/10/17 08:29:14;;;;;;;7.93;4.33;;;;;;;15.55;39.79;98611.56;5066519;28;20197;-78
2022/10/17 08:31:41;;;;;;;5.47;3.80;;;;;;;15.62;39.40;98610.38;5067022;28;20308;-77
2022/10/17 08:34:14;;;;;;;6.47;3.80;;;;;;;15.59;39.32;98599.22;5065140;28;20200;-77
2022/10/17 08:36:41;;;;;;;6.60;3.70;;;;;;;15.66;38.78;98590.22;5049273;28;20178;-78
2022/10/17 08:39:08;;;;;;;5.97;3.30;;;;;;;15.61;38.88;98607.84;5066771;28;20220;-77
2022/10/17 08:42:05;;;;;;;6.33;3.20;;;;;;;15.81;39.14;98615.69;5066532;28;20273;-77
2022/10/17 08:44:56;;;;;;;7.50;5.30;;;;;;;16.01;39.56;98613.94;5060797;28;20233;-75
2022/10/17 08:47:32;;;;;;;6.13;3.77;;;;;;;15.89;39.63;98609.25;5066465;28;20185;-78
2022/10/17 08:50:05;;;;;;;7.73;3.97;;;;;;;15.92;39.47;98596.06;5067097;28;20644;-78
2022/10/17 08:52:45;;;;;;;5.60;3.77;;;;;;;16.11;39.10;98612.69;5065635;28;20281;-77
2022/10/17 08:55:16;;;;;;;7.30;3.63;;;;;;;16.17;41.92;98604.56;5066208;28;20191;-77
2022/10/17 08:57:50;;;;;;;4.60;2.57;;;;;;;15.90;43.84;98579.59;5067243;28;20200;-77
2022/10/17 09:00:23;;;;;;;11.03;7.40;;;;;;;16.00;43.45;98614.88;5065688;28;20298;-77
2022/10/17 09:03:16;;;;;;;3.37;2.97;;;;;;;15.68;43.88;98619.75;5066263;28;20627;-76
2022/10/17 09:05:53;;;;;;;9.00;4.33;;;;;;;15.98;43.49;98606.25;5066177;28;20602;-77
2022/10/17 09:08:46;;;;;;;6.33;3.97;;;;;;;16.24;43.58;98613.81;5064464;28;20189;-78
2022/10/17 09:11:43;;;;;;;5.60;3.33;;;;;;;16.40;43.39;98613.16;5066846;28;20342;-77
2022/10/17 09:14:29;;;;;;;7.17;2.90;;;;;;;16.56;43.89;98607.22;5066399;28;20195;-77
2022/10/17 09:17:20;;;;;;;6.30;3.40;;;;;;;16.71;43.38;98606.53;5065547;28;20189;-78
2022/10/17 09:19:58;;;;;;;3.70;3.30;;;;;;;16.82;42.83;98600.81;5066991;28;20208;-77
2022/10/17 09:22:30;;;;;;;5.83;2.80;;;;;;;16.82;43.00;98598.19;5048922;28;20215;-77
2022/10/17 09:25:05;;;;;;;5.37;3.20;;;;;;;16.56;44.33;98564.53;5070654;28;20797;-75
2022/10/17 09:27:47;;;;;;;7.10;3.50;;;;;;;16.83;44.22;98599.91;5072873;28;20197;-78
2022/10/17 09:30:23;;;;;;;4.67;3.00;;;;;;;16.85;43.73;98596.28;5067844;28;20181;-77
2022/10/17 09:33:21;;;;;;;4.17;2.83;;;;;;;16.82;43.38;98593.81;5065506;28;20639;-75
2022/10/17 09:36:30;;;;;;;4.50;2.60;;;;;;;16.95;43.63;98599.31;5065333;28;20205;-78
2022/10/17 09:39:00;;;;;;;3.17;2.23;;;;;;;16.95;44.03;98591.47;5065471;28;20189;-81
2022/10/17 09:41:33;;;;;;;14.47;3.97;;;;;;;17.08;43.99;98590.00;5065802;28;20435;-78
2022/10/17 09:44:24;;;;;;;6.03;2.50;;;;;;;17.21;43.60;98585.84;5066243;28;20187;-76
2022/10/17 09:47:28;;;;;;;4.13;2.73;;;;;;;17.45;42.21;98583.84;5066737;28;20190;-75
2022/10/17 09:49:55;;;;;;;4.97;3.47;;;;;;;17.50;42.11;98569.63;5067167;28;20604;-76
2022/10/17 09:52:49;;;;;;;7.20;2.67;;;;;;;17.62;41.21;98584.72;5066002;28;20201;-78
2022/10/17 09:55:25;;;;;;;5.40;2.60;;;;;;;17.47;41.28;98543.56;5064759;28;20201;-77
2022/10/17 09:57:56;;;;;;;14.87;3.90;;;;;;;17.76;40.36;98574.41;5065821;28;20198;-78
2022/10/17 10:00:29;;;;;;;8.43;3.70;;;;;;;17.51;41.63;98547.75;5065510;28;20187;-75
2022/10/17 10:03:29;;;;;;;5.20;2.47;;;;;;;17.58;41.39;98579.72;5064382;28;20199;-77
2022/10/17 10:06:21;;;;;;;3.67;2.53;;;;;;;17.63;40.94;98578.59;5064003;28;20221;-77
2022/10/17 10:09:03;;;;;;;6.60;2.90;;;;;;;17.56;41.87;98568.47;5065993;28;20225;-78
2022/10/17 10:11:52;;;;;;;3.43;2.37;;;;;;;17.71;41.70;98571.19;5065935;28;20232;-78
2022/10/17 10:14:34;;;;;;;5.90;2.60;;;;;;;17.87;40.92;98566.00;5065217;28;20182;-76
2022/10/17 10:17:04;;;;;;;4.87;2.93;;;;;;;17.93;40.92;98564.88;5063897;28;20252;-76
2022/10/17 10:19:36;;;;;;;8.00;3.03;;;;;;;17.98;40.37;98554.97;5064167;28;20268;-77
2022/10/17 10:22:29;;;;;;;3.20;2.30;;;;;;;18.17;39.44;98559.22;5064576;28;20663;-76
2022/10/17 10:25:10;;;;;;;3.57;2.40;;;;;;;18.00;38.82;98561.84;5066150;28;20254;-78
2022/10/17 10:27:39;;;;;;;3.70;2.80;;;;;;;18.01;38.16;98558.28;5065045;28;20195;-77
2022/10/17 10:30:24;;;;;;;3.40;2.40;;;;;;;18.04;37.42;98549.44;5068544;28;20248;-78
2022/10/17 10:32:52;;;;;;;5.47;2.77;;;;;;;18.13;37.66;98548.97;5069368;28;20221;-78
2022/10/17 10:35:36;;;;;;;6.67;3.03;;;;;;;18.16;37.45;98543.53;5067612;28;20203;-78
2022/10/17 10:38:15;;;;;;;3.37;2.87;;;;;;;17.98;37.57;98547.13;5069671;28;20576;-77
2022/10/17 10:40:50;;;;;;;2.80;2.40;;;;;;;17.97;37.42;98537.56;5067982;28;20190;-78
2022/10/17 10:43:40;;;;;;;4.50;2.43;;;;;;;18.15;37.28;98529.59;5068940;28;20224;-76
2022/10/17 10:46:36;;;;;;;4.13;2.60;;;;;;;18.28;37.36;98540.31;5068080;28;20214;-78
2022/10/17 10:49:29;;;;;;;7.03;2.53;;;;;;;18.34;37.23;98535.56;5069661;28;20227;-76
2022/10/17 10:52:02;;;;;;;4.83;2.57;;;;;;;18.39;36.85;98527.44;5068737;28;20191;-77
2022/10/17 10:54:39;;;;;;;7.80;3.57;;;;;;;18.41;36.56;98531.69;5067676;28;20199;-77
2022/10/17 10:57:18;;;;;;;9.03;3.20;;;;;;;18.51;37.00;98526.81;5051047;28;20198;-78
2022/10/17 11:00:14;;;;;;;4.63;2.57;;;;;;;18.60;37.14;98521.09;5067497;28;20198;-77
2022/10/17 11:02:53;;;;;;;8.67;4.27;;;;;;;18.75;37.13;98516.78;5064232;28;20234;-76
2022/10/17 11:05:23;;;;;;;7.13;3.30;;;;;;;18.73;36.61;98516.88;5068491;28;20298;-77
2022/10/17 11:08:05;;;;;;;3.60;2.70;;;;;;;18.71;36.11;98510.88;5066912;28;20691;-78
2022/10/17 11:10:37;;;;;;;3.27;2.40;;;;;;;18.66;36.11;98520.75;5066746;28;20628;-78
2022/10/17 11:13:18;;;;;;;5.37;2.93;;;;;;;18.85;36.85;98516.19;5068115;28;20192;-78
2022/10/17 11:16:07;;;;;;;3.83;2.97;;;;;;;18.79;36.54;98507.81;5068372;28;20217;-76
2022/10/17 11:18:44;;;;;;;5.73;2.87;;;;;;;18.63;37.33;98511.25;5068370;28;20188;-78
2022/10/17 11:21:16;;;;;;;7.03;3.57;;;;;;;18.85;36.53;98504.84;5067581;28;20188;-77
2022/10/17 11:23:50;;;;;;;9.53;3.87;;;;;;;18.89;36.15;98485.34;5067944;28;20199;-76
2022/10/17 11:26:25;;;;;;;8.13;3.63;;;;;;;19.09;35.90;98501.69;5068503;28;20221;-76
2022/10/17 11:28:54;;;;;;;5.00;3.10;;;;;;;19.24;35.31;98500.81;5068073;28;20230;-76
2022/10/17 11:31:29;;;;;;;4.87;3.30;;;;;;;19.23;34.97;98495.63;5066594;28;20228;-76
2022/10/17 11:34:19;;;;;;;6.17;3.20;;;;;;;19.24;34.95;98500.81;5066513;28;20231;-77
2022/10/17 11:36:51;;;;;;;4.73;3.23;;;;;;;19.26;35.11;98492.84;5067722;28;20214;-77
2022/10/17 11:39:30;;;;;;;4.67;2.77;;;;;;;19.26;35.12;98488.44;5068396;28;20191;-75
2022/10/17 11:42:05;;;;;;;5.23;4.00;;;;;;;19.27;35.15;98471.75;5066819;28;20737;-76
2022/10/17 11:44:38;;;;;;;4.40;2.67;;;;;;;19.24;34.53;98478.97;5066631;28;20200;-77
2022/10/17 11:47:25;;;;;;;4.43;2.80;;;;;;;19.10;35.04;98473.66;5068048;28;20196;-76
2022/10/17 11:50:01;;;;;;;4.63;3.20;;;;;;;19.23;35.58;98464.97;5068135;28;20192;-77
2022/10/17 11:53:12;;;;;;;5.87;2.40;;;;;;;18.67;35.62;98391.22;5066179;28;20227;-78
2022/10/17 11:55:42;;;;;;;5.93;2.70;;;;;;;18.90;36.24;98468.69;5066207;28;20214;-78
2022/10/17 11:58:38;;;;;;;3.43;2.77;;;;;;;19.03;36.03;98470.53;5067417;28;20668;-77
2022/10/17 12:01:05;;;;;;;4.77;2.43;;;;;;;19.19;35.64;98468.72;5067481;28;20199;-76
2022/10/17 12:03:42;;;;;;;6.60;3.37;;;;;;;19.35;35.39;98474.78;5067531;28;20200;-77
2022/10/17 12:06:42;;;;;;;6.00;2.90;;;;;;;19.31;35.66;98460.13;5067374;28;20227;-76
2022/10/17 12:09:30;;;;;;;4.60;2.00;;;;;;;19.49;34.89;98472.19;5068089;28;20645;-77